Terminal Aerodrome Forecast
Issued by NWS

Home | Current Version | Previous Version | Text Only | Print | Product List | Glossary On
Versions: 1 2 3 4 5 6 7 8 9 10 11 12 13
000
FTUS44 KOUN 161120
TAFGAG
TAF
KGAG 161120Z 1612/1712 18023G33KT P6SM SKC
     FM161800 21015G24KT P6SM SCT250
     FM170000 07011KT P6SM SCT250=

USA.gov is the U.S. government's official web portal to all federal, state and local government web resources and services.